sensor_id;sensor_type;location;lat;lon;timestamp;P1;durP1;ratioP1;P2;durP2;ratioP2
27558;SDS011;15002;52.028;5.670;2023-06-26T00:00:26;11.32;;;10.18;;
27558;SDS011;15002;52.028;5.670;2023-06-26T00:02:52;11.95;;;10.75;;
27558;SDS011;15002;52.028;5.670;2023-06-26T00:05:18;11.90;;;10.63;;
27558;SDS011;15002;52.028;5.670;2023-06-26T00:07:44;12.65;;;10.20;;
27558;SDS011;15002;52.028;5.670;2023-06-26T00:10:09;11.40;;;10.27;;
27558;SDS011;15002;52.028;5.670;2023-06-26T00:12:35;12.50;;;11.25;;
27558;SDS011;15002;52.028;5.670;2023-06-26T00:15:01;11.70;;;10.50;;
27558;SDS011;15002;52.028;5.670;2023-06-26T00:17:26;12.43;;;11.13;;
27558;SDS011;15002;52.028;5.670;2023-06-26T00:19:52;12.20;;;10.75;;
27558;SDS011;15002;52.028;5.670;2023-06-26T00:22:18;13.05;;;9.70;;
27558;SDS011;15002;52.028;5.670;2023-06-26T00:24:44;13.00;;;10.43;;
27558;SDS011;15002;52.028;5.670;2023-06-26T00:27:10;12.32;;;10.40;;
27558;SDS011;15002;52.028;5.670;2023-06-26T00:29:35;12.35;;;11.05;;
27558;SDS011;15002;52.028;5.670;2023-06-26T00:32:03;11.70;;;10.55;;
27558;SDS011;15002;52.028;5.670;2023-06-26T00:34:29;11.23;;;10.13;;
27558;SDS011;15002;52.028;5.670;2023-06-26T00:36:55;11.73;;;10.52;;
27558;SDS011;15002;52.028;5.670;2023-06-26T00:39:20;13.20;;;10.90;;
27558;SDS011;15002;52.028;5.670;2023-06-26T00:41:46;12.60;;;11.30;;
27558;SDS011;15002;52.028;5.670;2023-06-26T00:44:12;12.95;;;11.50;;
27558;SDS011;15002;52.028;5.670;2023-06-26T00:46:38;13.75;;;11.75;;
27558;SDS011;15002;52.028;5.670;2023-06-26T00:49:03;14.65;;;12.52;;
27558;SDS011;15002;52.028;5.670;2023-06-26T00:51:30;14.63;;;12.43;;
27558;SDS011;15002;52.028;5.670;2023-06-26T00:53:56;16.48;;;13.20;;
27558;SDS011;15002;52.028;5.670;2023-06-26T00:56:23;15.25;;;13.07;;
27558;SDS011;15002;52.028;5.670;2023-06-26T00:58:49;16.70;;;15.00;;
27558;SDS011;15002;52.028;5.670;2023-06-26T01:01:15;15.48;;;13.88;;
27558;SDS011;15002;52.028;5.670;2023-06-26T01:03:45;16.02;;;14.38;;
27558;SDS011;15002;52.028;5.670;2023-06-26T01:06:17;17.33;;;14.38;;
27558;SDS011;15002;52.028;5.670;2023-06-26T01:08:43;15.85;;;14.15;;
27558;SDS011;15002;52.028;5.670;2023-06-26T01:11:09;15.55;;;13.88;;
27558;SDS011;15002;52.028;5.670;2023-06-26T01:13:36;15.60;;;13.38;;
27558;SDS011;15002;52.028;5.670;2023-06-26T01:16:02;17.63;;;13.63;;
27558;SDS011;15002;52.028;5.670;2023-06-26T01:18:29;14.77;;;13.27;;
27558;SDS011;15002;52.028;5.670;2023-06-26T01:20:56;15.82;;;12.85;;
27558;SDS011;15002;52.028;5.670;2023-06-26T01:23:37;16.02;;;13.95;;
27558;SDS011;15002;52.028;5.670;2023-06-26T01:26:16;14.75;;;13.25;;
27558;SDS011;15002;52.028;5.670;2023-06-26T01:28:46;15.35;;;13.13;;
27558;SDS011;15002;52.028;5.670;2023-06-26T01:31:13;15.10;;;13.50;;
27558;SDS011;15002;52.028;5.670;2023-06-26T01:33:40;14.38;;;12.40;;
27558;SDS011;15002;52.028;5.670;2023-06-26T01:36:07;15.35;;;12.80;;
27558;SDS011;15002;52.028;5.670;2023-06-26T01:38:32;13.25;;;11.93;;
27558;SDS011;15002;52.028;5.670;2023-06-26T01:40:59;12.13;;;10.90;;
27558;SDS011;15002;52.028;5.670;2023-06-26T01:46:21;12.63;;;9.93;;
27558;SDS011;15002;52.028;5.670;2023-06-26T01:51:32;11.27;;;8.95;;
27558;SDS011;15002;52.028;5.670;2023-06-26T01:54:07;8.68;;;7.78;;
27558;SDS011;15002;52.028;5.670;2023-06-26T01:56:38;8.25;;;7.45;;
27558;SDS011;15002;52.028;5.670;2023-06-26T01:59:05;8.65;;;7.30;;
27558;SDS011;15002;52.028;5.670;2023-06-26T02:01:32;8.82;;;7.07;;
27558;SDS011;15002;52.028;5.670;2023-06-26T02:03:59;7.88;;;6.07;;
27558;SDS011;15002;52.028;5.670;2023-06-26T02:06:25;8.70;;;6.10;;
27558;SDS011;15002;52.028;5.670;2023-06-26T02:08:50;6.55;;;5.65;;
27558;SDS011;15002;52.028;5.670;2023-06-26T02:11:16;8.45;;;5.85;;
27558;SDS011;15002;52.028;5.670;2023-06-26T02:13:42;10.82;;;5.70;;
27558;SDS011;15002;52.028;5.670;2023-06-26T02:16:07;6.70;;;5.50;;
27558;SDS011;15002;52.028;5.670;2023-06-26T02:18:33;8.70;;;5.45;;
27558;SDS011;15002;52.028;5.670;2023-06-26T02:20:58;9.32;;;6.20;;
27558;SDS011;15002;52.028;5.670;2023-06-26T02:23:25;6.57;;;5.50;;
27558;SDS011;15002;52.028;5.670;2023-06-26T02:25:50;10.20;;;6.30;;
27558;SDS011;15002;52.028;5.670;2023-06-26T02:28:16;8.35;;;5.38;;
27558;SDS011;15002;52.028;5.670;2023-06-26T02:30:41;7.13;;;5.47;;
27558;SDS011;15002;52.028;5.670;2023-06-26T02:33:07;9.98;;;4.93;;
27558;SDS011;15002;52.028;5.670;2023-06-26T02:35:33;6.60;;;4.57;;
27558;SDS011;15002;52.028;5.670;2023-06-26T02:37:58;7.57;;;5.38;;
27558;SDS011;15002;52.028;5.670;2023-06-26T02:40:24;9.75;;;5.10;;
27558;SDS011;15002;52.028;5.670;2023-06-26T02:42:50;8.35;;;5.40;;
27558;SDS011;15002;52.028;5.670;2023-06-26T02:45:15;9.30;;;5.68;;
27558;SDS011;15002;52.028;5.670;2023-06-26T02:47:41;7.82;;;4.72;;
27558;SDS011;15002;52.028;5.670;2023-06-26T02:50:07;8.50;;;4.60;;
27558;SDS011;15002;52.028;5.670;2023-06-26T02:52:33;10.00;;;5.00;;
27558;SDS011;15002;52.028;5.670;2023-06-26T02:54:58;10.45;;;5.32;;
27558;SDS011;15002;52.028;5.670;2023-06-26T02:57:24;8.10;;;4.53;;
27558;SDS011;15002;52.028;5.670;2023-06-26T02:59:49;8.45;;;4.70;;
27558;SDS011;15002;52.028;5.670;2023-06-26T03:02:15;11.73;;;4.75;;
27558;SDS011;15002;52.028;5.670;2023-06-26T03:04:41;8.13;;;4.75;;
27558;SDS011;15002;52.028;5.670;2023-06-26T03:07:08;9.68;;;4.70;;
27558;SDS011;15002;52.028;5.670;2023-06-26T03:09:34;8.85;;;5.28;;
27558;SDS011;15002;52.028;5.670;2023-06-26T03:11:59;9.35;;;5.03;;
27558;SDS011;15002;52.028;5.670;2023-06-26T03:14:25;10.00;;;4.93;;
27558;SDS011;15002;52.028;5.670;2023-06-26T03:16:52;10.05;;;4.50;;
27558;SDS011;15002;52.028;5.670;2023-06-26T03:19:18;10.30;;;4.95;;
27558;SDS011;15002;52.028;5.670;2023-06-26T03:21:43;9.05;;;5.18;;
27558;SDS011;15002;52.028;5.670;2023-06-26T03:24:09;9.68;;;4.80;;
27558;SDS011;15002;52.028;5.670;2023-06-26T03:26:35;12.82;;;5.15;;
27558;SDS011;15002;52.028;5.670;2023-06-26T03:29:00;9.35;;;5.00;;
27558;SDS011;15002;52.028;5.670;2023-06-26T03:31:26;9.15;;;5.07;;
27558;SDS011;15002;52.028;5.670;2023-06-26T03:33:51;8.75;;;4.90;;
27558;SDS011;15002;52.028;5.670;2023-06-26T03:36:17;12.90;;;5.30;;
27558;SDS011;15002;52.028;5.670;2023-06-26T03:38:43;11.15;;;4.88;;
27558;SDS011;15002;52.028;5.670;2023-06-26T03:41:08;8.25;;;5.07;;
27558;SDS011;15002;52.028;5.670;2023-06-26T03:43:34;13.10;;;5.60;;
27558;SDS011;15002;52.028;5.670;2023-06-26T03:46:00;10.75;;;5.18;;
27558;SDS011;15002;52.028;5.670;2023-06-26T03:48:25;11.63;;;5.25;;
27558;SDS011;15002;52.028;5.670;2023-06-26T03:50:51;12.77;;;5.57;;
27558;SDS011;15002;52.028;5.670;2023-06-26T03:53:17;9.20;;;5.47;;
27558;SDS011;15002;52.028;5.670;2023-06-26T03:55:42;14.00;;;5.55;;
27558;SDS011;15002;52.028;5.670;2023-06-26T03:58:08;11.20;;;5.38;;
27558;SDS011;15002;52.028;5.670;2023-06-26T04:00:34;12.25;;;5.38;;
27558;SDS011;15002;52.028;5.670;2023-06-26T04:02:59;12.82;;;5.82;;
27558;SDS011;15002;52.028;5.670;2023-06-26T04:05:25;10.63;;;5.18;;
27558;SDS011;15002;52.028;5.670;2023-06-26T04:07:51;12.25;;;4.82;;
27558;SDS011;15002;52.028;5.670;2023-06-26T04:10:17;12.10;;;5.57;;
27558;SDS011;15002;52.028;5.670;2023-06-26T04:12:42;11.18;;;4.75;;
27558;SDS011;15002;52.028;5.670;2023-06-26T04:15:08;12.75;;;5.70;;
27558;SDS011;15002;52.028;5.670;2023-06-26T04:17:34;13.00;;;5.63;;
27558;SDS011;15002;52.028;5.670;2023-06-26T04:19:59;18.02;;;6.40;;
27558;SDS011;15002;52.028;5.670;2023-06-26T04:22:25;9.50;;;5.35;;
27558;SDS011;15002;52.028;5.670;2023-06-26T04:24:51;13.25;;;5.25;;
27558;SDS011;15002;52.028;5.670;2023-06-26T04:27:17;10.48;;;5.20;;
27558;SDS011;15002;52.028;5.670;2023-06-26T04:29:43;12.13;;;5.35;;
27558;SDS011;15002;52.028;5.670;2023-06-26T04:32:09;15.68;;;5.82;;
27558;SDS011;15002;52.028;5.670;2023-06-26T04:34:34;12.93;;;5.45;;
27558;SDS011;15002;52.028;5.670;2023-06-26T04:37:01;12.73;;;5.22;;
27558;SDS011;15002;52.028;5.670;2023-06-26T04:39:28;12.70;;;5.22;;
27558;SDS011;15002;52.028;5.670;2023-06-26T04:41:55;13.75;;;5.47;;
27558;SDS011;15002;52.028;5.670;2023-06-26T04:44:20;15.05;;;5.97;;
27558;SDS011;15002;52.028;5.670;2023-06-26T04:46:46;12.55;;;5.18;;
27558;SDS011;15002;52.028;5.670;2023-06-26T04:49:12;12.90;;;5.38;;
27558;SDS011;15002;52.028;5.670;2023-06-26T04:51:38;12.68;;;4.93;;
27558;SDS011;15002;52.028;5.670;2023-06-26T04:54:08;13.65;;;5.20;;
27558;SDS011;15002;52.028;5.670;2023-06-26T04:56:35;9.98;;;5.25;;
27558;SDS011;15002;52.028;5.670;2023-06-26T04:59:00;11.63;;;4.57;;
27558;SDS011;15002;52.028;5.670;2023-06-26T05:01:27;12.48;;;4.95;;
27558;SDS011;15002;52.028;5.670;2023-06-26T05:04:03;10.25;;;5.20;;
27558;SDS011;15002;52.028;5.670;2023-06-26T05:06:29;11.98;;;4.95;;
27558;SDS011;15002;52.028;5.670;2023-06-26T05:08:55;10.77;;;4.88;;
27558;SDS011;15002;52.028;5.670;2023-06-26T05:11:21;11.70;;;5.10;;
27558;SDS011;15002;52.028;5.670;2023-06-26T05:13:47;11.30;;;4.78;;
27558;SDS011;15002;52.028;5.670;2023-06-26T05:16:12;10.13;;;4.65;;
27558;SDS011;15002;52.028;5.670;2023-06-26T05:18:38;9.88;;;4.35;;
27558;SDS011;15002;52.028;5.670;2023-06-26T05:21:04;11.30;;;4.53;;
27558;SDS011;15002;52.028;5.670;2023-06-26T05:23:30;7.68;;;4.20;;
27558;SDS011;15002;52.028;5.670;2023-06-26T05:25:57;12.32;;;4.93;;
27558;SDS011;15002;52.028;5.670;2023-06-26T05:28:23;11.07;;;4.55;;
27558;SDS011;15002;52.028;5.670;2023-06-26T05:30:53;11.60;;;4.85;;
27558;SDS011;15002;52.028;5.670;2023-06-26T05:33:20;8.97;;;3.90;;
27558;SDS011;15002;52.028;5.670;2023-06-26T05:35:48;6.78;;;3.90;;
27558;SDS011;15002;52.028;5.670;2023-06-26T05:38:14;8.60;;;3.88;;
27558;SDS011;15002;52.028;5.670;2023-06-26T05:40:40;8.57;;;4.13;;
27558;SDS011;15002;52.028;5.670;2023-06-26T05:43:06;10.07;;;4.22;;
27558;SDS011;15002;52.028;5.670;2023-06-26T05:45:32;6.57;;;3.58;;
27558;SDS011;15002;52.028;5.670;2023-06-26T05:47:58;5.43;;;3.20;;
27558;SDS011;15002;52.028;5.670;2023-06-26T05:50:24;7.05;;;3.30;;
27558;SDS011;15002;52.028;5.670;2023-06-26T05:52:50;5.13;;;3.38;;
27558;SDS011;15002;52.028;5.670;2023-06-26T05:55:16;7.53;;;3.53;;
27558;SDS011;15002;52.028;5.670;2023-06-26T05:57:42;6.18;;;3.15;;
27558;SDS011;15002;52.028;5.670;2023-06-26T06:00:10;6.45;;;3.33;;
27558;SDS011;15002;52.028;5.670;2023-06-26T06:02:37;7.43;;;3.55;;
27558;SDS011;15002;52.028;5.670;2023-06-26T06:05:03;6.05;;;3.35;;
27558;SDS011;15002;52.028;5.670;2023-06-26T06:07:30;11.30;;;3.67;;
27558;SDS011;15002;52.028;5.670;2023-06-26T06:10:00;6.67;;;3.33;;
27558;SDS011;15002;52.028;5.670;2023-06-26T06:12:26;8.85;;;3.25;;
27558;SDS011;15002;52.028;5.670;2023-06-26T06:14:52;12.20;;;3.85;;
27558;SDS011;15002;52.028;5.670;2023-06-26T06:17:19;7.88;;;3.30;;
27558;SDS011;15002;52.028;5.670;2023-06-26T06:19:45;21.90;;;4.80;;
27558;SDS011;15002;52.028;5.670;2023-06-26T06:22:11;7.82;;;3.22;;
27558;SDS011;15002;52.028;5.670;2023-06-26T06:24:36;6.90;;;2.70;;
27558;SDS011;15002;52.028;5.670;2023-06-26T06:27:02;3.95;;;2.70;;
27558;SDS011;15002;52.028;5.670;2023-06-26T06:29:28;5.78;;;3.08;;
27558;SDS011;15002;52.028;5.670;2023-06-26T06:31:54;5.28;;;2.65;;
27558;SDS011;15002;52.028;5.670;2023-06-26T06:34:19;5.97;;;2.80;;
27558;SDS011;15002;52.028;5.670;2023-06-26T06:36:45;4.25;;;2.58;;
27558;SDS011;15002;52.028;5.670;2023-06-26T06:39:11;4.93;;;2.72;;
27558;SDS011;15002;52.028;5.670;2023-06-26T06:41:38;5.13;;;2.35;;
27558;SDS011;15002;52.028;5.670;2023-06-26T06:44:03;4.00;;;2.35;;
27558;SDS011;15002;52.028;5.670;2023-06-26T06:46:29;3.78;;;2.30;;
27558;SDS011;15002;52.028;5.670;2023-06-26T06:48:55;5.72;;;2.22;;
27558;SDS011;15002;52.028;5.670;2023-06-26T06:51:21;3.55;;;2.20;;
27558;SDS011;15002;52.028;5.670;2023-06-26T06:53:47;4.03;;;1.88;;
27558;SDS011;15002;52.028;5.670;2023-06-26T06:56:13;4.40;;;2.30;;
27558;SDS011;15002;52.028;5.670;2023-06-26T06:58:38;2.63;;;1.90;;
27558;SDS011;15002;52.028;5.670;2023-06-26T07:01:07;7.47;;;2.15;;
27558;SDS011;15002;52.028;5.670;2023-06-26T07:03:34;3.65;;;2.05;;
27558;SDS011;15002;52.028;5.670;2023-06-26T07:06:01;4.53;;;2.10;;
27558;SDS011;15002;52.028;5.670;2023-06-26T07:08:27;3.08;;;2.00;;
27558;SDS011;15002;52.028;5.670;2023-06-26T07:10:54;3.25;;;2.10;;
27558;SDS011;15002;52.028;5.670;2023-06-26T07:13:21;7.85;;;2.47;;
27558;SDS011;15002;52.028;5.670;2023-06-26T07:15:47;7.18;;;2.40;;
27558;SDS011;15002;52.028;5.670;2023-06-26T07:18:13;3.35;;;2.15;;
27558;SDS011;15002;52.028;5.670;2023-06-26T07:20:39;4.35;;;2.33;;
27558;SDS011;15002;52.028;5.670;2023-06-26T07:23:05;3.75;;;2.22;;
27558;SDS011;15002;52.028;5.670;2023-06-26T07:25:31;4.78;;;2.10;;
27558;SDS011;15002;52.028;5.670;2023-06-26T07:27:56;3.13;;;2.30;;
27558;SDS011;15002;52.028;5.670;2023-06-26T07:30:22;3.45;;;1.98;;
27558;SDS011;15002;52.028;5.670;2023-06-26T07:32:49;4.47;;;2.50;;
27558;SDS011;15002;52.028;5.670;2023-06-26T07:35:15;5.75;;;2.20;;
27558;SDS011;15002;52.028;5.670;2023-06-26T07:37:41;3.85;;;2.20;;
27558;SDS011;15002;52.028;5.670;2023-06-26T07:40:06;2.35;;;2.15;;
27558;SDS011;15002;52.028;5.670;2023-06-26T07:42:33;8.25;;;2.63;;
27558;SDS011;15002;52.028;5.670;2023-06-26T07:44:59;4.40;;;2.22;;
27558;SDS011;15002;52.028;5.670;2023-06-26T07:47:24;2.97;;;2.10;;
27558;SDS011;15002;52.028;5.670;2023-06-26T07:49:50;3.85;;;2.38;;
27558;SDS011;15002;52.028;5.670;2023-06-26T07:52:16;8.07;;;2.40;;
27558;SDS011;15002;52.028;5.670;2023-06-26T07:54:43;3.47;;;2.50;;
27558;SDS011;15002;52.028;5.670;2023-06-26T07:57:08;4.32;;;2.70;;
27558;SDS011;15002;52.028;5.670;2023-06-26T07:59:34;3.17;;;2.30;;
27558;SDS011;15002;52.028;5.670;2023-06-26T08:02:00;4.72;;;2.38;;
27558;SDS011;15002;52.028;5.670;2023-06-26T08:04:27;5.68;;;2.30;;
27558;SDS011;15002;52.028;5.670;2023-06-26T08:06:55;8.13;;;2.60;;
27558;SDS011;15002;52.028;5.670;2023-06-26T08:09:22;6.13;;;2.55;;
27558;SDS011;15002;52.028;5.670;2023-06-26T08:11:49;7.30;;;2.92;;
27558;SDS011;15002;52.028;5.670;2023-06-26T08:14:15;5.18;;;2.90;;
27558;SDS011;15002;52.028;5.670;2023-06-26T08:16:41;5.53;;;2.70;;
27558;SDS011;15002;52.028;5.670;2023-06-26T08:19:08;5.53;;;2.70;;
27558;SDS011;15002;52.028;5.670;2023-06-26T08:21:35;5.88;;;2.85;;
27558;SDS011;15002;52.028;5.670;2023-06-26T08:24:01;4.47;;;2.70;;
27558;SDS011;15002;52.028;5.670;2023-06-26T08:26:27;6.38;;;2.70;;
27558;SDS011;15002;52.028;5.670;2023-06-26T08:28:53;4.15;;;2.80;;
27558;SDS011;15002;52.028;5.670;2023-06-26T08:31:19;4.82;;;2.35;;
27558;SDS011;15002;52.028;5.670;2023-06-26T08:33:45;6.68;;;2.45;;
27558;SDS011;15002;52.028;5.670;2023-06-26T08:36:11;5.43;;;2.40;;
27558;SDS011;15002;52.028;5.670;2023-06-26T08:38:37;2.65;;;2.38;;
27558;SDS011;15002;52.028;5.670;2023-06-26T08:41:05;3.95;;;2.28;;
27558;SDS011;15002;52.028;5.670;2023-06-26T08:43:31;4.88;;;2.50;;
27558;SDS011;15002;52.028;5.670;2023-06-26T08:45:57;5.60;;;2.38;;
27558;SDS011;15002;52.028;5.670;2023-06-26T08:48:23;3.00;;;2.08;;
27558;SDS011;15002;52.028;5.670;2023-06-26T08:50:49;2.95;;;1.85;;
27558;SDS011;15002;52.028;5.670;2023-06-26T08:53:23;6.15;;;2.00;;
27558;SDS011;15002;52.028;5.670;2023-06-26T08:56:32;5.07;;;1.90;;
27558;SDS011;15002;52.028;5.670;2023-06-26T08:59:02;3.75;;;1.75;;
27558;SDS011;15002;52.028;5.670;2023-06-26T09:01:29;3.85;;;1.95;;
27558;SDS011;15002;52.028;5.670;2023-06-26T09:03:56;2.70;;;1.60;;
27558;SDS011;15002;52.028;5.670;2023-06-26T09:06:22;3.63;;;1.70;;
27558;SDS011;15002;52.028;5.670;2023-06-26T09:08:48;3.30;;;1.52;;
27558;SDS011;15002;52.028;5.670;2023-06-26T09:11:13;3.50;;;1.60;;
27558;SDS011;15002;52.028;5.670;2023-06-26T09:13:39;2.25;;;1.55;;
27558;SDS011;15002;52.028;5.670;2023-06-26T09:16:06;3.00;;;1.42;;
27558;SDS011;15002;52.028;5.670;2023-06-26T09:18:33;4.13;;;1.95;;
27558;SDS011;15002;52.028;5.670;2023-06-26T09:20:59;3.15;;;1.35;;
27558;SDS011;15002;52.028;5.670;2023-06-26T09:23:25;2.08;;;1.20;;
27558;SDS011;15002;52.028;5.670;2023-06-26T09:25:51;3.92;;;1.33;;
27558;SDS011;15002;52.028;5.670;2023-06-26T09:28:17;2.58;;;1.17;;
27558;SDS011;15002;52.028;5.670;2023-06-26T09:30:44;2.30;;;1.05;;
27558;SDS011;15002;52.028;5.670;2023-06-26T09:33:16;2.78;;;1.15;;
27558;SDS011;15002;52.028;5.670;2023-06-26T09:38:09;4.47;;;1.00;;
27558;SDS011;15002;52.028;5.670;2023-06-26T09:40:35;2.10;;;0.80;;
27558;SDS011;15002;52.028;5.670;2023-06-26T09:43:06;3.92;;;1.10;;
27558;SDS011;15002;52.028;5.670;2023-06-26T09:45:33;3.35;;;1.48;;
27558;SDS011;15002;52.028;5.670;2023-06-26T09:48:05;3.95;;;1.13;;
27558;SDS011;15002;52.028;5.670;2023-06-26T09:50:36;1.92;;;0.93;;
27558;SDS011;15002;52.028;5.670;2023-06-26T09:53:12;2.05;;;1.08;;
27558;SDS011;15002;52.028;5.670;2023-06-26T09:55:38;3.75;;;1.20;;
27558;SDS011;15002;52.028;5.670;2023-06-26T09:58:09;5.53;;;1.08;;
27558;SDS011;15002;52.028;5.670;2023-06-26T10:00:39;3.17;;;1.38;;
27558;SDS011;15002;52.028;5.670;2023-06-26T10:03:09;4.53;;;1.27;;
27558;SDS011;15002;52.028;5.670;2023-06-26T10:05:36;2.22;;;1.20;;
27558;SDS011;15002;52.028;5.670;2023-06-26T10:08:03;3.70;;;1.10;;
27558;SDS011;15002;52.028;5.670;2023-06-26T10:10:30;2.40;;;1.10;;
27558;SDS011;15002;52.028;5.670;2023-06-26T10:13:04;3.95;;;1.80;;
27558;SDS011;15002;52.028;5.670;2023-06-26T10:15:36;3.58;;;1.10;;
27558;SDS011;15002;52.028;5.670;2023-06-26T10:18:02;3.25;;;1.27;;
27558;SDS011;15002;52.028;5.670;2023-06-26T10:20:29;4.72;;;0.80;;
27558;SDS011;15002;52.028;5.670;2023-06-26T10:22:55;4.35;;;1.17;;
27558;SDS011;15002;52.028;5.670;2023-06-26T10:25:24;2.05;;;1.20;;
27558;SDS011;15002;52.028;5.670;2023-06-26T10:27:53;1.52;;;0.95;;
27558;SDS011;15002;52.028;5.670;2023-06-26T10:30:22;2.88;;;0.98;;
27558;SDS011;15002;52.028;5.670;2023-06-26T10:32:52;3.88;;;1.00;;
27558;SDS011;15002;52.028;5.670;2023-06-26T10:35:17;3.78;;;1.38;;
27558;SDS011;15002;52.028;5.670;2023-06-26T10:37:47;3.88;;;1.23;;
27558;SDS011;15002;52.028;5.670;2023-06-26T10:42:46;4.35;;;1.15;;
27558;SDS011;15002;52.028;5.670;2023-06-26T10:45:16;3.22;;;1.10;;
27558;SDS011;15002;52.028;5.670;2023-06-26T10:50:18;2.70;;;1.38;;
27558;SDS011;15002;52.028;5.670;2023-06-26T10:53:11;3.28;;;1.27;;
27558;SDS011;15002;52.028;5.670;2023-06-26T10:55:43;2.60;;;1.05;;
27558;SDS011;15002;52.028;5.670;2023-06-26T11:06:26;1.90;;;0.90;;
27558;SDS011;15002;52.028;5.670;2023-06-26T11:11:19;4.18;;;1.30;;
27558;SDS011;15002;52.028;5.670;2023-06-26T11:14:05;1.25;;;0.77;;
27558;SDS011;15002;52.028;5.670;2023-06-26T11:16:32;7.38;;;1.00;;
27558;SDS011;15002;52.028;5.670;2023-06-26T11:18:59;1.58;;;1.00;;
27558;SDS011;15002;52.028;5.670;2023-06-26T11:21:25;3.60;;;1.00;;
27558;SDS011;15002;52.028;5.670;2023-06-26T11:23:52;2.30;;;0.90;;
27558;SDS011;15002;52.028;5.670;2023-06-26T11:26:19;1.88;;;1.08;;
27558;SDS011;15002;52.028;5.670;2023-06-26T11:28:50;4.07;;;1.20;;
27558;SDS011;15002;52.028;5.670;2023-06-26T11:31:27;6.45;;;1.25;;
27558;SDS011;15002;52.028;5.670;2023-06-26T11:33:55;3.30;;;1.30;;
27558;SDS011;15002;52.028;5.670;2023-06-26T11:36:25;4.15;;;1.23;;
27558;SDS011;15002;52.028;5.670;2023-06-26T11:38:53;3.78;;;1.30;;
27558;SDS011;15002;52.028;5.670;2023-06-26T11:41:20;2.83;;;1.30;;
27558;SDS011;15002;52.028;5.670;2023-06-26T11:43:46;3.40;;;1.20;;
27558;SDS011;15002;52.028;5.670;2023-06-26T11:46:12;4.03;;;1.17;;
27558;SDS011;15002;52.028;5.670;2023-06-26T11:48:38;3.83;;;1.50;;
27558;SDS011;15002;52.028;5.670;2023-06-26T11:51:04;2.28;;;1.10;;
27558;SDS011;15002;52.028;5.670;2023-06-26T11:53:30;3.88;;;1.00;;
27558;SDS011;15002;52.028;5.670;2023-06-26T11:55:56;3.33;;;1.38;;
27558;SDS011;15002;52.028;5.670;2023-06-26T11:58:22;6.35;;;1.48;;
27558;SDS011;15002;52.028;5.670;2023-06-26T12:00:48;2.58;;;1.00;;
27558;SDS011;15002;52.028;5.670;2023-06-26T12:03:14;1.92;;;0.85;;
27558;SDS011;15002;52.028;5.670;2023-06-26T12:05:40;4.45;;;1.30;;
27558;SDS011;15002;52.028;5.670;2023-06-26T12:08:10;5.50;;;1.38;;
27558;SDS011;15002;52.028;5.670;2023-06-26T12:10:36;3.35;;;1.15;;
27558;SDS011;15002;52.028;5.670;2023-06-26T12:13:01;1.55;;;1.08;;
27558;SDS011;15002;52.028;5.670;2023-06-26T12:15:27;2.50;;;1.30;;
27558;SDS011;15002;52.028;5.670;2023-06-26T12:17:53;2.50;;;1.10;;
27558;SDS011;15002;52.028;5.670;2023-06-26T12:20:20;3.10;;;1.13;;
27558;SDS011;15002;52.028;5.670;2023-06-26T12:22:47;2.00;;;1.10;;
27558;SDS011;15002;52.028;5.670;2023-06-26T12:25:14;2.92;;;1.02;;
27558;SDS011;15002;52.028;5.670;2023-06-26T12:27:40;3.25;;;1.33;;
27558;SDS011;15002;52.028;5.670;2023-06-26T12:30:06;2.28;;;1.30;;
27558;SDS011;15002;52.028;5.670;2023-06-26T12:32:32;2.95;;;0.90;;
27558;SDS011;15002;52.028;5.670;2023-06-26T12:34:59;2.88;;;1.20;;
27558;SDS011;15002;52.028;5.670;2023-06-26T12:37:25;3.08;;;1.25;;
27558;SDS011;15002;52.028;5.670;2023-06-26T12:39:55;2.47;;;1.05;;
27558;SDS011;15002;52.028;5.670;2023-06-26T12:44:49;3.55;;;1.02;;
27558;SDS011;15002;52.028;5.670;2023-06-26T12:47:16;2.42;;;0.80;;
27558;SDS011;15002;52.028;5.670;2023-06-26T12:49:44;3.15;;;1.05;;
27558;SDS011;15002;52.028;5.670;2023-06-26T12:52:11;4.00;;;1.10;;
27558;SDS011;15002;52.028;5.670;2023-06-26T12:54:38;3.10;;;1.15;;
27558;SDS011;15002;52.028;5.670;2023-06-26T12:57:05;2.65;;;0.90;;
27558;SDS011;15002;52.028;5.670;2023-06-26T12:59:32;2.30;;;1.02;;
27558;SDS011;15002;52.028;5.670;2023-06-26T13:01:59;2.20;;;0.90;;
27558;SDS011;15002;52.028;5.670;2023-06-26T13:04:25;1.58;;;0.90;;
27558;SDS011;15002;52.028;5.670;2023-06-26T13:06:51;2.67;;;0.95;;
27558;SDS011;15002;52.028;5.670;2023-06-26T13:09:20;4.07;;;1.17;;
27558;SDS011;15002;52.028;5.670;2023-06-26T13:11:46;4.40;;;0.98;;
27558;SDS011;15002;52.028;5.670;2023-06-26T13:14:12;3.60;;;0.95;;
27558;SDS011;15002;52.028;5.670;2023-06-26T13:16:38;1.10;;;0.70;;
27558;SDS011;15002;52.028;5.670;2023-06-26T13:19:04;2.58;;;0.93;;
27558;SDS011;15002;52.028;5.670;2023-06-26T13:21:30;2.67;;;1.17;;
27558;SDS011;15002;52.028;5.670;2023-06-26T13:23:55;2.28;;;1.10;;
27558;SDS011;15002;52.028;5.670;2023-06-26T13:26:22;1.20;;;0.90;;
27558;SDS011;15002;52.028;5.670;2023-06-26T13:28:49;3.20;;;0.93;;
27558;SDS011;15002;52.028;5.670;2023-06-26T13:31:14;1.45;;;0.60;;
27558;SDS011;15002;52.028;5.670;2023-06-26T13:33:40;6.30;;;1.23;;
27558;SDS011;15002;52.028;5.670;2023-06-26T13:36:06;3.22;;;0.90;;
27558;SDS011;15002;52.028;5.670;2023-06-26T13:38:32;1.58;;;0.82;;
27558;SDS011;15002;52.028;5.670;2023-06-26T13:40:59;0.95;;;0.57;;
27558;SDS011;15002;52.028;5.670;2023-06-26T13:43:26;1.77;;;0.65;;
27558;SDS011;15002;52.028;5.670;2023-06-26T13:45:53;1.77;;;0.60;;
27558;SDS011;15002;52.028;5.670;2023-06-26T13:48:19;1.63;;;0.80;;
27558;SDS011;15002;52.028;5.670;2023-06-26T13:50:45;1.67;;;0.75;;
27558;SDS011;15002;52.028;5.670;2023-06-26T13:53:12;4.07;;;0.77;;
27558;SDS011;15002;52.028;5.670;2023-06-26T13:55:37;2.95;;;0.60;;
27558;SDS011;15002;52.028;5.670;2023-06-26T13:58:04;2.70;;;0.90;;
27558;SDS011;15002;52.028;5.670;2023-06-26T14:00:30;3.85;;;0.90;;
27558;SDS011;15002;52.028;5.670;2023-06-26T14:02:56;2.63;;;0.60;;
27558;SDS011;15002;52.028;5.670;2023-06-26T14:05:22;1.08;;;0.60;;
27558;SDS011;15002;52.028;5.670;2023-06-26T14:07:47;2.25;;;0.80;;
27558;SDS011;15002;52.028;5.670;2023-06-26T14:10:13;3.80;;;0.88;;
27558;SDS011;15002;52.028;5.670;2023-06-26T14:12:40;2.92;;;1.02;;
27558;SDS011;15002;52.028;5.670;2023-06-26T14:15:06;2.20;;;0.98;;
27558;SDS011;15002;52.028;5.670;2023-06-26T14:17:32;2.85;;;0.90;;
27558;SDS011;15002;52.028;5.670;2023-06-26T14:19:58;2.85;;;1.05;;
27558;SDS011;15002;52.028;5.670;2023-06-26T14:22:24;3.17;;;1.08;;
27558;SDS011;15002;52.028;5.670;2023-06-26T14:24:50;1.50;;;0.80;;
27558;SDS011;15002;52.028;5.670;2023-06-26T14:27:16;1.88;;;1.10;;
27558;SDS011;15002;52.028;5.670;2023-06-26T14:29:41;3.38;;;1.20;;
27558;SDS011;15002;52.028;5.670;2023-06-26T14:32:07;2.95;;;1.10;;
27558;SDS011;15002;52.028;5.670;2023-06-26T14:34:33;3.25;;;1.05;;
27558;SDS011;15002;52.028;5.670;2023-06-26T14:36:58;3.63;;;0.95;;
27558;SDS011;15002;52.028;5.670;2023-06-26T14:39:24;5.10;;;1.30;;
27558;SDS011;15002;52.028;5.670;2023-06-26T14:41:50;2.50;;;1.15;;
27558;SDS011;15002;52.028;5.670;2023-06-26T14:44:16;2.28;;;0.80;;
27558;SDS011;15002;52.028;5.670;2023-06-26T14:46:41;1.85;;;0.80;;
27558;SDS011;15002;52.028;5.670;2023-06-26T14:49:08;3.88;;;1.13;;
27558;SDS011;15002;52.028;5.670;2023-06-26T14:51:33;1.75;;;0.88;;
27558;SDS011;15002;52.028;5.670;2023-06-26T14:53:59;2.45;;;0.75;;
27558;SDS011;15002;52.028;5.670;2023-06-26T14:56:25;1.55;;;0.82;;
27558;SDS011;15002;52.028;5.670;2023-06-26T14:58:51;5.60;;;0.90;;
27558;SDS011;15002;52.028;5.670;2023-06-26T15:01:18;4.88;;;1.52;;
27558;SDS011;15002;52.028;5.670;2023-06-26T15:03:47;2.80;;;0.90;;
27558;SDS011;15002;52.028;5.670;2023-06-26T15:06:12;1.38;;;0.90;;